Bookmark and Share
Track history (hours):
 

Vasco Da Gama

More information available from US FCC via Universal Licensing System and Coast Guard Vessel Documentation Center.

Last reported at 2012-Nov-01 15:28 UTC. Time now 2014-Apr-21 07:41 UTC.
Position N 29°17' W 089°36'.
Warning: this ship's position is years out of date!

Length 54 m; draft 2.2 m.

Type: Fishing. MMSI: 367166240.

NotesDate/timePositionNaut miles runAvg speedWind from/ knotsBaromVisibWave heightAir tempDewpointWater temp
2012-Nov-01 15:28N 29°17' W 089°36'0 0.0
2012-Nov-01 14:34N 29°17' W 089°36'0 0.0
2012-Nov-01 13:34N 29°17' W 089°36'0 0.1
2012-Nov-01 10:28N 29°17' W 089°36'5 0.6
2012-Nov-01 01:30N 29°23' W 089°36'5 2.2
2012-Oct-31 23:27N 29°18' W 089°36'6 6.5
2012-Oct-31 22:30N 29°12' W 089°34'3 3.5
2012-Oct-31 21:33N 29°10' W 089°31'0 0.5
2012-Oct-31 20:34N 29°10' W 089°31'0 0.3
2012-Oct-31 19:33N 29°10' W 089°31'4 0.9
2012-Oct-31 14:28N 29°13' W 089°35'1 0.8
2012-Oct-31 13:32N 29°12' W 089°35'1 0.9
2012-Oct-31 12:32N 29°12' W 089°34'6 3.1
2012-Oct-31 10:37N 29°17' W 089°36'0 0.0
2012-Oct-31 09:33N 29°17' W 089°36'0 0.0
2012-Oct-31 08:33N 29°17' W 089°36'9 0.2
2012-Oct-29 13:33N 29°11' W 089°29'  
2012-Oct-26 18:24N 29°14' W 089°36'4 4.6
2012-Oct-26 17:33N 29°12' W 089°32'5 5.4
2012-Oct-26 16:34N 29°09' W 089°27'4 4.0
2012-Oct-26 15:34N 29°05' W 089°25'1 0.6
2012-Oct-26 14:34N 29°05' W 089°25'0 0.4
2012-Oct-26 13:34N 29°05' W 089°25'2 1.8
2012-Oct-26 12:33N 29°04' W 089°27'6 5.7
2012-Oct-26 11:34N 29°08' W 089°30'10 5.1
2012-Oct-26 09:33N 29°17' W 089°36'0 0.0
2012-Oct-26 08:30N 29°17' W 089°36'0 0.0
2012-Oct-26 07:32N 29°17' W 089°36'0 0.0
2012-Oct-26 06:29N 29°17' W 089°36'0 0.0
2012-Oct-26 05:34N 29°17' W 089°36'0 0.0
2012-Oct-26 04:36N 29°17' W 089°36'9 1.5
2012-Oct-25 22:32N 29°11' W 089°29'1 0.9
2012-Oct-25 21:34N 29°11' W 089°29'1 0.7
2012-Oct-25 20:33N 29°11' W 089°30'4 4.1
2012-Oct-25 19:34N 29°07' W 089°28'6 6.2
2012-Oct-25 18:33N 29°01' W 089°25'1 1.4
2012-Oct-25 17:34N 29°03' W 089°24'4 4.1
2012-Oct-25 16:32N 28°59' W 089°26'0 0.2
2012-Oct-25 15:32N 28°59' W 089°26'0 0.5
2012-Oct-25 14:33N 28°59' W 089°25'1 0.7
2012-Oct-25 13:34N 28°60' W 089°25'1 0.6
2012-Oct-25 12:34N 28°60' W 089°25'4 3.7
2012-Oct-25 11:33N 29°04' W 089°25'3 3.4
2012-Oct-25 10:38N 29°07' W 089°25'0 0.0
2012-Oct-25 09:34N 29°07' W 089°25'0 0.0
2012-Oct-25 08:34N 29°07' W 089°25'0 0.0
2012-Oct-25 07:34N 29°07' W 089°25'0 0.0
2012-Oct-25 06:34N 29°07' W 089°25'0 0.0
2012-Oct-25 05:34N 29°07' W 089°25'0 0.0
2012-Oct-25 04:37N 29°07' W 089°25'0 0.0
2012-Oct-25 03:34N 29°07' W 089°25'0 0.0
2012-Oct-25 02:34N 29°07' W 089°25'0 0.0
2012-Oct-25 01:34N 29°07' W 089°25'0 0.0
2012-Oct-25 00:34N 29°07' W 089°25'0 0.0
2012-Oct-24 23:34N 29°07' W 089°25'1 0.6
2012-Oct-24 22:34N 29°06' W 089°25'1 1.0
2012-Oct-24 21:34N 29°05' W 089°25'0 0.5
2012-Oct-24 20:34N 29°05' W 089°25'0 0.2
2012-Oct-24 19:34N 29°05' W 089°25'4 4.0
2012-Oct-24 18:34N 29°01' W 089°24'1 0.8
2012-Oct-24 17:33N 29°01' W 089°25'3 2.6
2012-Oct-24 16:34N 28°58' W 089°26'3 3.0
2012-Oct-24 15:34N 29°01' W 089°25'5 5.0
2012-Oct-24 14:33N 29°06' W 089°27'7 6.9
2012-Oct-24 13:34N 29°12' W 089°30'1 0.9
2012-Oct-24 12:34N 29°13' W 089°31'8 2.0
2012-Oct-24 08:29N 29°20' W 089°36'2 0.1
2012-Oct-23 03:31N 29°17' W 089°36'0 0.0
2012-Oct-23 02:27N 29°17' W 089°36'4 1.3
2012-Oct-22 23:28N 29°14' W 089°35'4 4.0
2012-Oct-22 22:34N 29°13' W 089°31'1 1.1
2012-Oct-22 21:33N 29°13' W 089°32'1 1.0
2012-Oct-22 20:34N 29°13' W 089°31'7 6.9
2012-Oct-22 19:33N 29°07' W 089°26'2 2.0
2012-Oct-22 18:34N 29°09' W 089°27'0 0.3
2012-Oct-22 17:33N 29°09' W 089°27'7 7.2
2012-Oct-22 16:34N 29°14' W 089°21'8 8.5
2012-Oct-22 15:34N 29°22' W 089°18'  

Dump ship's entire track history

sailing weather and tide predictions

Vasco Da Gama — WBF3638 — position and weather